Aviation Digital Data Service (ADDS)

Output produced by METARs form (1226 UTC 02 October 2014)
found at http://www.aviationweather.gov/adds/metars/
 
KDOV 021223Z AUTO 33004KT 10SM FEW014 BKN020 15/15 A3010 RMK AO2
TAF KDOV 0208/0314 01006KT 9999 FEW025 SCT050 QNH3005INS 
     BECMG 0213/0214 36009KT 9999 SCT030 QNH3008INS 
     BECMG 0221/0222 06009KT 9999 SCT035 QNH3008INS 
     BECMG 0305/0306 10006KT 9999 BKN025 QNH3005INS TX21/0218Z TN14/0209Z